Time;durP1;ratioP1;P1;durP2;ratioP2;P2;SDS_P1;SDS_P2;PMS_P1;PMS_P2;Temp;Humidity;BMP_temperature;BMP_pressure;BME280_temperature;BME280_humidity;BME280_pressure;Samples;Min_cycle;Max_cycle;Signal;HPM_P1;HPM_P2
2022/04/11 00:01:52;;;;;;;22.95;13.27;;;5.20;72.70;;;;;;5014885;28;20690;-69
2022/04/11 00:04:20;;;;;;;27.90;15.25;;;5.20;72.70;;;;;;5015644;28;20268;-70
2022/04/11 00:06:50;;;;;;;35.17;19.58;;;5.20;72.70;;;;;;5018754;28;20205;-69
2022/04/11 00:09:18;;;;;;;27.90;15.10;;;5.10;72.60;;;;;;5015793;28;20294;-70
2022/04/11 00:11:46;;;;;;;13.95;9.32;;;5.10;72.40;;;;;;5018370;28;20221;-70
2022/04/11 00:14:15;;;;;;;17.13;10.32;;;5.00;72.40;;;;;;5014659;28;20897;-69
2022/04/11 00:16:43;;;;;;;30.60;16.80;;;5.00;72.70;;;;;;5015338;28;20229;-69
2022/04/11 00:19:11;;;;;;;21.92;13.05;;;5.00;72.50;;;;;;5013960;28;20203;-69
2022/04/11 00:21:39;;;;;;;18.60;10.50;;;4.90;72.50;;;;;;5010027;28;20240;-70
2022/04/11 00:24:09;;;;;;;12.68;8.63;;;4.90;72.70;;;;;;5015339;28;20895;-69
2022/04/11 00:26:37;;;;;;;13.73;8.90;;;4.90;72.80;;;;;;5014996;28;20212;-69
2022/04/11 00:29:06;;;;;;;21.42;12.98;;;4.80;72.80;;;;;;5019071;28;20283;-70
2022/04/11 00:31:35;;;;;;;24.23;14.10;;;4.80;72.80;;;;;;5012182;28;20233;-70
2022/04/11 00:34:03;;;;;;;26.40;13.23;;;4.80;72.80;;;;;;5016591;28;20198;-69
2022/04/11 00:36:30;;;;;;;18.30;10.95;;;4.80;72.80;;;;;;5015304;28;20220;-70
2022/04/11 00:38:58;;;;;;;13.00;7.63;;;4.80;72.80;;;;;;5031802;28;21030;-69
2022/04/11 00:41:28;;;;;;;12.82;8.27;;;4.70;72.70;;;;;;5032418;28;20266;-69
2022/04/11 00:43:56;;;;;;;12.57;9.57;;;4.70;72.80;;;;;;5018034;28;20660;-69
2022/04/11 00:46:24;;;;;;;12.32;7.20;;;4.70;72.90;;;;;;5020707;28;20252;-70
2022/04/11 00:48:52;;;;;;;13.35;9.15;;;4.70;72.90;;;;;;5016202;28;20224;-70
2022/04/11 00:51:22;;;;;;;12.48;8.80;;;4.70;73.00;;;;;;5015372;28;20521;-69
2022/04/11 00:53:52;;;;;;;10.57;6.40;;;4.70;73.00;;;;;;5028330;28;20200;-69
2022/04/11 00:56:21;;;;;;;9.75;6.20;;;4.70;73.00;;;;;;5017419;28;20216;-70
2022/04/11 00:58:51;;;;;;;8.82;6.60;;;4.70;72.90;;;;;;5015992;28;20196;-70
2022/04/11 01:01:19;;;;;;;10.90;7.13;;;4.70;72.70;;;;;;5017650;28;20230;-69
2022/04/11 01:03:47;;;;;;;11.45;7.80;;;4.60;72.70;;;;;;5033909;28;20205;-69
2022/04/11 01:06:15;;;;;;;14.45;7.45;;;4.50;72.80;;;;;;5013158;28;20224;-69
2022/04/11 01:08:44;;;;;;;16.00;8.40;;;4.50;72.90;;;;;;5015263;28;20210;-69
2022/04/11 01:11:12;;;;;;;14.48;9.32;;;4.40;73.00;;;;;;5013235;28;20228;-70
2022/04/11 01:13:42;;;;;;;12.82;10.25;;;4.50;73.10;;;;;;5014176;28;20198;-69
2022/04/11 01:16:11;;;;;;;11.57;7.32;;;4.50;73.10;;;;;;5015432;28;20258;-69
2022/04/11 01:18:40;;;;;;;12.02;7.20;;;4.40;73.00;;;;;;5017588;28;20197;-69
2022/04/11 01:21:10;;;;;;;10.93;7.13;;;4.40;73.10;;;;;;5020240;28;20239;-70
2022/04/11 01:23:39;;;;;;;9.57;5.63;;;4.40;73.20;;;;;;5017631;28;20285;-69
2022/04/11 01:26:08;;;;;;;11.25;7.38;;;4.40;73.30;;;;;;5014399;28;20198;-69
2022/04/11 01:28:39;;;;;;;11.10;7.13;;;4.50;73.30;;;;;;5027677;28;20218;-70
2022/04/11 01:31:09;;;;;;;14.55;8.07;;;4.50;73.40;;;;;;5023466;28;20231;-70
2022/04/11 01:33:37;;;;;;;8.93;6.78;;;4.50;73.40;;;;;;5032541;28;20212;-70
2022/04/11 01:36:07;;;;;;;17.58;5.93;;;4.50;73.40;;;;;;5034823;28;20295;-70
2022/04/11 01:38:35;;;;;;;12.25;6.40;;;4.50;73.30;;;;;;5017549;28;20210;-70
2022/04/11 01:41:05;;;;;;;13.27;6.57;;;4.50;73.40;;;;;;5013055;28;21080;-70
2022/04/11 01:43:33;;;;;;;13.13;7.43;;;4.60;73.40;;;;;;5010810;28;20210;-70
2022/04/11 01:46:01;;;;;;;13.18;7.50;;;4.60;73.40;;;;;;5012213;28;20229;-70
2022/04/11 01:48:39;;;;;;;13.32;8.85;;;4.60;73.40;;;;;;5018977;28;20890;-69
2022/04/11 01:51:07;;;;;;;19.02;9.20;;;4.60;73.30;;;;;;5010775;28;20252;-70
2022/04/11 01:53:35;;;;;;;13.88;8.75;;;4.60;73.30;;;;;;5009121;28;20674;-70
2022/04/11 01:56:05;;;;;;;12.25;8.00;;;4.60;73.40;;;;;;5019683;28;20891;-70
2022/04/11 01:58:34;;;;;;;11.30;7.50;;;4.60;73.40;;;;;;5013633;28;20293;-70
2022/04/11 02:01:03;;;;;;;10.93;6.82;;;4.60;73.30;;;;;;5028826;28;20229;-68
2022/04/11 02:03:34;;;;;;;10.50;7.05;;;4.60;73.30;;;;;;5014594;28;20186;-71
2022/04/11 02:06:03;;;;;;;11.40;7.32;;;4.60;73.30;;;;;;5028364;28;20336;-69
2022/04/11 02:08:31;;;;;;;9.80;7.00;;;4.60;73.30;;;;;;5016961;28;20197;-69
2022/04/11 02:11:08;;;;;;;9.95;7.20;;;4.50;73.30;;;;;;5033482;28;20271;-69
2022/04/11 02:13:37;;;;;;;12.57;7.80;;;4.50;73.30;;;;;;5017747;28;20221;-68
2022/04/11 02:16:05;;;;;;;11.32;7.70;;;4.60;73.40;;;;;;5018937;28;20317;-69
2022/04/11 02:18:34;;;;;;;13.68;7.80;;;4.60;73.40;;;;;;5017278;28;20233;-69
2022/04/11 02:21:02;;;;;;;10.40;7.75;;;4.50;73.40;;;;;;5021326;28;20245;-68
2022/04/11 02:23:30;;;;;;;9.73;6.75;;;4.50;73.30;;;;;;5022043;28;20189;-69
2022/04/11 02:25:58;;;;;;;12.10;7.78;;;4.50;73.40;;;;;;5026348;28;20744;-70
2022/04/11 02:28:28;;;;;;;11.52;6.97;;;4.50;73.40;;;;;;5023696;28;20206;-70
2022/04/11 02:30:56;;;;;;;9.95;6.82;;;4.50;73.40;;;;;;5020413;28;21078;-70
2022/04/11 02:33:24;;;;;;;9.40;6.95;;;4.50;73.50;;;;;;5017263;28;20205;-70
2022/04/11 02:35:52;;;;;;;11.13;6.85;;;4.50;73.50;;;;;;5031340;28;20205;-70
2022/04/11 02:38:21;;;;;;;10.55;6.95;;;4.50;73.50;;;;;;5034893;28;20210;-70
2022/04/11 02:40:49;;;;;;;10.05;7.30;;;4.50;73.40;;;;;;5033411;28;20230;-69
2022/04/11 02:43:22;;;;;;;12.20;7.22;;;4.50;73.40;;;;;;5022948;28;20205;-70
2022/04/11 02:45:56;;;;;;;11.80;7.93;;;4.50;73.40;;;;;;5032884;28;20225;-70
2022/04/11 02:48:29;;;;;;;10.95;7.57;;;4.50;73.50;;;;;;5017523;28;20199;-70
2022/04/11 02:51:20;;;;;;;10.25;8.07;;;4.50;73.40;;;;;;5009959;28;20850;-70
2022/04/11 02:53:53;;;;;;;10.20;7.28;;;4.50;73.50;;;;;;5035325;28;20210;-70
2022/04/11 02:56:21;;;;;;;11.10;7.47;;;4.50;73.50;;;;;;5024138;28;20235;-69
2022/04/11 02:58:50;;;;;;;13.57;7.22;;;4.40;73.40;;;;;;5031769;28;20198;-69
2022/04/11 03:01:20;;;;;;;10.00;7.70;;;4.40;73.30;;;;;;5022713;28;20269;-69
2022/04/11 03:03:52;;;;;;;10.88;8.38;;;4.30;73.40;;;;;;5032333;28;20210;-70
2022/04/11 03:06:20;;;;;;;11.35;7.35;;;4.30;73.60;;;;;;5020510;28;20239;-71
2022/04/11 03:08:50;;;;;;;14.35;7.65;;;4.30;73.60;;;;;;5034866;28;20304;-70
2022/04/11 03:11:26;;;;;;;10.80;7.60;;;4.30;73.60;;;;;;5021899;28;20225;-70
2022/04/11 03:13:54;;;;;;;10.65;7.70;;;4.20;73.60;;;;;;5021896;28;20810;-70
2022/04/11 03:16:23;;;;;;;10.50;7.50;;;4.30;73.70;;;;;;5015830;28;20244;-70
2022/04/11 03:18:51;;;;;;;11.65;8.38;;;4.20;73.70;;;;;;5018200;28;20691;-70
2022/04/11 03:21:21;;;;;;;12.85;8.65;;;4.20;73.70;;;;;;5016984;28;20876;-70
2022/04/11 03:23:59;;;;;;;12.20;7.90;;;4.20;73.70;;;;;;5030558;28;20266;-70
2022/04/11 03:26:27;;;;;;;14.30;8.57;;;4.20;73.90;;;;;;5031737;28;20232;-69
2022/04/11 03:28:55;;;;;;;14.45;8.23;;;4.20;74.00;;;;;;5036834;28;21063;-69
2022/04/11 03:31:24;;;;;;;12.52;8.10;;;4.20;74.10;;;;;;5020716;28;20233;-69
2022/04/11 03:33:54;;;;;;;14.77;9.23;;;4.20;74.00;;;;;;5021655;28;20206;-69
2022/04/11 03:36:24;;;;;;;14.00;8.50;;;4.30;74.10;;;;;;5020928;28;20267;-69
2022/04/11 03:38:53;;;;;;;13.55;8.05;;;4.30;74.10;;;;;;5036193;28;20214;-69
2022/04/11 03:41:23;;;;;;;15.00;8.70;;;4.30;74.10;;;;;;5022400;28;20268;-69
2022/04/11 03:43:51;;;;;;;13.15;9.00;;;4.30;74.00;;;;;;5030843;28;20202;-70
2022/04/11 03:46:20;;;;;;;12.77;8.80;;;4.30;74.00;;;;;;5022256;28;20706;-69
2022/04/11 03:48:49;;;;;;;12.70;7.95;;;4.30;74.10;;;;;;5032702;28;20213;-70
2022/04/11 03:51:19;;;;;;;9.52;8.00;;;4.30;74.00;;;;;;5014254;28;20896;-70
2022/04/11 03:53:48;;;;;;;12.27;8.63;;;4.30;73.90;;;;;;5031872;28;20214;-69
2022/04/11 03:56:17;;;;;;;10.70;7.00;;;4.30;74.00;;;;;;5012189;28;20205;-69
2022/04/11 03:58:46;;;;;;;12.25;7.95;;;4.30;74.10;;;;;;5016092;28;20293;-69
2022/04/11 04:01:14;;;;;;;10.20;7.65;;;4.30;74.20;;;;;;5016323;28;20337;-69
2022/04/11 04:03:43;;;;;;;15.70;8.23;;;4.30;74.20;;;;;;5022710;28;20205;-69
2022/04/11 04:06:13;;;;;;;9.43;6.20;;;4.30;74.10;;;;;;5015595;28;20202;-69
2022/04/11 04:08:45;;;;;;;10.40;6.40;;;4.30;74.10;;;;;;5031412;28;20205;-69
2022/04/11 04:11:16;;;;;;;9.60;7.68;;;4.30;74.10;;;;;;5020453;28;20866;-69
2022/04/11 04:14:01;;;;;;;9.52;7.32;;;4.30;74.10;;;;;;5033617;28;20201;-69
2022/04/11 04:16:30;;;;;;;9.85;7.57;;;4.30;74.10;;;;;;5010502;28;20316;-69
2022/04/11 04:19:04;;;;;;;11.70;7.70;;;4.30;74.10;;;;;;5014611;28;20213;-69
2022/04/11 04:21:34;;;;;;;12.85;8.07;;;4.30;74.00;;;;;;5030839;28;20832;-70
2022/04/11 04:24:03;;;;;;;11.18;7.70;;;4.30;74.10;;;;;;5037024;28;20255;-70
2022/04/11 04:26:33;;;;;;;13.07;8.30;;;4.30;74.10;;;;;;5018768;28;20206;-68
2022/04/11 04:29:03;;;;;;;11.25;8.65;;;4.30;74.10;;;;;;5033033;28;20210;-68
2022/04/11 04:31:35;;;;;;;11.65;7.85;;;4.20;74.10;;;;;;5013969;28;20314;-70
2022/04/11 04:34:03;;;;;;;12.70;8.73;;;4.20;74.10;;;;;;5034079;28;20228;-70
2022/04/11 04:36:32;;;;;;;13.93;8.77;;;4.20;74.10;;;;;;5014279;28;20202;-69
2022/04/11 04:39:03;;;;;;;12.88;8.00;;;4.20;74.20;;;;;;5033638;28;20323;-70
2022/04/11 04:41:34;;;;;;;14.32;8.50;;;4.20;74.20;;;;;;5015096;28;20311;-69
2022/04/11 04:44:03;;;;;;;10.55;7.72;;;4.20;74.10;;;;;;5032740;28;20300;-69
2022/04/11 04:46:31;;;;;;;12.70;9.25;;;4.20;73.90;;;;;;5012903;28;20228;-69
2022/04/11 04:49:06;;;;;;;16.52;9.10;;;4.10;73.90;;;;;;5013536;28;20687;-69
2022/04/11 04:51:34;;;;;;;12.77;9.77;;;4.10;74.00;;;;;;5028275;28;20222;-70
2022/04/11 04:54:06;;;;;;;13.93;9.75;;;4.10;74.10;;;;;;5013630;28;20208;-69
2022/04/11 04:56:36;;;;;;;18.00;9.88;;;4.10;74.30;;;;;;5028272;28;20198;-70
2022/04/11 04:59:11;;;;;;;13.15;8.75;;;4.10;74.30;;;;;;5011370;28;20209;-71
2022/04/11 05:01:39;;;;;;;20.55;9.05;;;4.10;74.40;;;;;;5025579;28;20280;-70
2022/04/11 05:04:09;;;;;;;14.88;8.52;;;4.10;74.40;;;;;;5011373;28;20209;-70
2022/04/11 05:06:38;;;;;;;12.63;8.25;;;4.10;74.40;;;;;;5014788;28;20205;-70
2022/04/11 05:09:10;;;;;;;12.82;7.93;;;4.20;74.50;;;;;;5029303;28;20760;-70
2022/04/11 05:11:40;;;;;;;14.38;9.02;;;4.20;74.50;;;;;;5019515;28;20223;-70
2022/04/11 05:14:08;;;;;;;17.25;8.98;;;4.20;74.60;;;;;;5016205;28;20213;-71
2022/04/11 05:16:37;;;;;;;11.43;7.88;;;4.30;74.90;;;;;;5035577;28;20284;-71
2022/04/11 05:19:10;;;;;;;10.30;7.75;;;4.50;75.10;;;;;;5015984;28;20202;-71
2022/04/11 05:21:39;;;;;;;13.38;8.00;;;4.60;75.10;;;;;;5032043;28;20223;-70
2022/04/11 05:24:07;;;;;;;9.23;7.50;;;4.70;74.90;;;;;;5034562;28;20197;-70
2022/04/11 05:26:37;;;;;;;15.43;9.13;;;4.70;74.80;;;;;;5015705;28;20251;-70
2022/04/11 05:29:05;;;;;;;12.77;8.70;;;4.80;74.70;;;;;;5019624;28;20209;-69
2022/04/11 05:31:33;;;;;;;12.70;8.57;;;4.80;74.60;;;;;;5018051;28;20234;-69
2022/04/11 05:34:01;;;;;;;15.10;9.35;;;4.80;74.30;;;;;;5020509;28;20307;-69
2022/04/11 05:36:29;;;;;;;13.70;9.65;;;4.80;74.40;;;;;;5020207;28;20205;-69
2022/04/11 05:38:58;;;;;;;12.85;10.38;;;4.80;74.50;;;;;;5014794;28;20214;-70
2022/04/11 05:41:26;;;;;;;20.17;13.60;;;4.90;74.50;;;;;;5012580;28;20221;-69
2022/04/11 05:43:56;;;;;;;22.73;14.38;;;4.90;74.30;;;;;;5033665;28;20222;-70
2022/04/11 05:46:30;;;;;;;26.10;17.85;;;4.90;74.40;;;;;;5014473;28;20221;-70
2022/04/11 05:49:07;;;;;;;26.17;18.20;;;5.00;74.90;;;;;;5015649;28;20407;-70
2022/04/11 05:51:35;;;;;;;37.60;19.10;;;5.10;74.50;;;;;;5016612;28;20245;-69
2022/04/11 05:54:04;;;;;;;27.95;18.48;;;5.10;74.00;;;;;;5024737;28;20898;-69
2022/04/11 05:56:34;;;;;;;22.58;16.17;;;4.90;73.80;;;;;;5016519;28;20201;-70
2022/04/11 05:59:08;;;;;;;22.98;15.23;;;4.90;73.80;;;;;;5025003;28;20266;-70
2022/04/11 06:01:37;;;;;;;22.23;16.10;;;4.80;73.80;;;;;;5038913;28;20225;-70
2022/04/11 06:04:06;;;;;;;21.98;16.17;;;4.70;73.90;;;;;;5023407;28;20212;-70
2022/04/11 06:06:35;;;;;;;19.52;14.10;;;4.70;74.10;;;;;;5030797;28;20210;-70
2022/04/11 06:09:04;;;;;;;18.70;13.63;;;4.70;74.30;;;;;;5033652;28;20217;-70
2022/04/11 06:11:34;;;;;;;18.83;13.55;;;4.70;74.30;;;;;;5018185;28;20222;-71
2022/04/11 06:14:02;;;;;;;18.27;13.05;;;4.70;74.40;;;;;;5020604;28;20632;-71
2022/04/11 06:16:32;;;;;;;23.85;14.18;;;4.80;74.60;;;;;;5021125;28;20316;-70
2022/04/11 06:19:00;;;;;;;18.25;13.35;;;4.80;74.60;;;;;;5035223;28;20259;-70
2022/04/11 06:21:29;;;;;;;18.15;13.93;;;4.80;74.50;;;;;;5023065;28;20305;-70
2022/04/11 06:23:57;;;;;;;17.10;14.00;;;4.90;74.50;;;;;;5031679;28;20584;-70
2022/04/11 06:26:27;;;;;;;18.75;14.02;;;4.90;74.50;;;;;;5016370;28;20206;-70
2022/04/11 06:28:55;;;;;;;19.98;15.23;;;4.90;74.60;;;;;;5020719;28;20221;-70
2022/04/11 06:31:24;;;;;;;26.52;18.08;;;4.90;74.50;;;;;;5017038;28;20638;-69
2022/04/11 06:33:59;;;;;;;21.17;16.25;;;4.90;74.40;;;;;;5020087;28;20581;-70
2022/04/11 06:36:31;;;;;;;22.73;17.25;;;4.80;74.40;;;;;;5017059;28;20251;-70
2022/04/11 06:38:59;;;;;;;32.90;19.30;;;4.80;74.60;;;;;;5016344;28;20235;-69
2022/04/11 06:41:32;;;;;;;32.67;19.60;;;4.70;74.80;;;;;;5018193;28;20217;-70
2022/04/11 06:44:00;;;;;;;25.60;18.33;;;4.70;74.90;;;;;;5026476;28;20206;-70
2022/04/11 06:46:43;;;;;;;31.98;20.83;;;4.70;75.10;;;;;;5017247;28;20615;-70
2022/04/11 06:49:13;;;;;;;56.75;30.83;;;4.70;75.20;;;;;;5038165;28;20212;-68
2022/04/11 06:51:42;;;;;;;49.33;24.50;;;4.70;75.30;;;;;;5017606;28;20278;-69
2022/04/11 06:54:09;;;;;;;37.15;24.30;;;4.70;75.40;;;;;;5038255;28;20204;-69
2022/04/11 06:56:37;;;;;;;38.05;26.58;;;4.80;75.50;;;;;;5022076;28;20197;-70
2022/04/11 06:59:05;;;;;;;32.17;20.80;;;4.80;75.60;;;;;;5025470;28;20212;-69
2022/04/11 07:01:33;;;;;;;29.60;20.73;;;4.80;75.80;;;;;;5018964;28;20241;-69
2022/04/11 07:04:02;;;;;;;35.53;21.00;;;4.90;75.80;;;;;;5019184;28;20825;-70
2022/04/11 07:06:31;;;;;;;24.85;18.80;;;4.90;76.00;;;;;;5024557;28;20272;-70
2022/04/11 07:08:59;;;;;;;30.52;19.42;;;5.00;76.10;;;;;;5018930;28;20209;-70
2022/04/11 07:11:27;;;;;;;26.67;18.23;;;5.10;76.10;;;;;;5014687;28;20229;-70
2022/04/11 07:13:55;;;;;;;27.85;19.73;;;5.20;76.10;;;;;;5017820;28;20205;-70
2022/04/11 07:16:24;;;;;;;26.80;18.20;;;5.30;76.20;;;;;;5016268;28;20232;-70
2022/04/11 07:18:52;;;;;;;29.35;19.63;;;5.40;76.30;;;;;;5021206;28;20202;-70
2022/04/11 07:21:20;;;;;;;31.67;22.83;;;5.40;76.30;;;;;;5017862;28;20225;-69
2022/04/11 07:23:49;;;;;;;27.50;20.30;;;5.50;76.30;;;;;;5019182;28;20210;-70
2022/04/11 07:26:17;;;;;;;39.13;21.48;;;5.60;76.50;;;;;;5021851;28;20612;-70
2022/04/11 07:28:47;;;;;;;27.30;18.95;;;5.70;76.50;;;;;;5020683;28;20190;-70
2022/04/11 07:31:15;;;;;;;22.75;18.08;;;5.70;76.50;;;;;;5014438;28;20748;-70
2022/04/11 07:33:43;;;;;;;25.25;17.90;;;5.80;76.40;;;;;;5014386;28;20198;-70
2022/04/11 07:36:11;;;;;;;27.30;17.65;;;5.80;76.40;;;;;;5020623;28;20201;-69
2022/04/11 07:38:39;;;;;;;22.98;14.63;;;5.90;76.50;;;;;;5012330;28;20213;-70
2022/04/11 07:41:08;;;;;;;24.75;17.13;;;5.90;76.50;;;;;;5015514;28;20229;-69
2022/04/11 07:43:36;;;;;;;23.13;16.40;;;6.00;76.50;;;;;;5017390;28;20201;-70
2022/04/11 07:46:05;;;;;;;19.40;15.55;;;6.10;76.70;;;;;;5016671;28;20877;-70
2022/04/11 07:48:33;;;;;;;23.45;16.58;;;6.10;76.80;;;;;;5016339;28;20290;-71
2022/04/11 07:51:01;;;;;;;23.27;16.63;;;6.20;76.90;;;;;;5016677;28;20236;-70
2022/04/11 07:53:29;;;;;;;21.38;15.80;;;6.30;76.90;;;;;;5017623;28;20236;-70
2022/04/11 07:55:57;;;;;;;24.95;16.40;;;6.30;76.90;;;;;;5020520;28;20201;-70
2022/04/11 07:58:27;;;;;;;20.42;15.05;;;6.40;76.70;;;;;;5019832;28;20241;-71
2022/04/11 08:00:55;;;;;;;23.77;15.63;;;6.50;76.90;;;;;;5017462;28;20849;-70
2022/04/11 08:03:23;;;;;;;20.88;15.18;;;6.60;76.90;;;;;;5016306;28;20201;-71
2022/04/11 08:05:51;;;;;;;18.98;14.88;;;6.60;76.80;;;;;;5016004;28;20206;-70
2022/04/11 08:08:19;;;;;;;15.10;12.73;;;6.70;76.80;;;;;;5015083;28;20216;-69
2022/04/11 08:10:47;;;;;;;22.05;14.57;;;6.80;76.80;;;;;;5014563;28;20236;-70
2022/04/11 08:13:15;;;;;;;18.13;13.18;;;6.90;76.80;;;;;;5019672;28;20210;-68
2022/04/11 08:15:44;;;;;;;17.17;12.75;;;6.90;76.80;;;;;;5019030;28;20233;-70
2022/04/11 08:18:12;;;;;;;19.63;13.00;;;7.00;76.80;;;;;;5021429;28;20656;-70
2022/04/11 08:20:40;;;;;;;19.35;12.57;;;7.10;76.60;;;;;;5024479;28;20229;-70
2022/04/11 08:23:08;;;;;;;19.30;12.80;;;7.20;76.60;;;;;;5022601;28;20263;-70
2022/04/11 08:25:36;;;;;;;19.40;11.35;;;7.30;76.60;;;;;;5025557;28;20209;-71
2022/04/11 08:28:04;;;;;;;14.90;11.25;;;7.30;76.60;;;;;;5031807;28;20756;-69
2022/04/11 08:30:32;;;;;;;14.60;10.18;;;7.40;76.60;;;;;;5024197;28;20241;-70
2022/04/11 08:33:02;;;;;;;19.77;11.63;;;7.50;76.50;;;;;;5020880;28;20213;-71
2022/04/11 08:35:30;;;;;;;14.43;11.13;;;7.60;76.50;;;;;;5015066;28;20212;-71
2022/04/11 08:37:58;;;;;;;16.07;10.10;;;7.70;76.20;;;;;;5015804;28;20434;-70
2022/04/11 08:40:26;;;;;;;11.40;8.40;;;7.80;76.20;;;;;;5012769;28;20572;-70
2022/04/11 08:42:53;;;;;;;11.43;7.07;;;7.90;75.90;;;;;;5012945;28;20449;-70
2022/04/11 08:45:23;;;;;;;13.70;7.33;;;8.00;75.80;;;;;;5015371;28;20457;-70
2022/04/11 08:47:53;;;;;;;13.23;7.67;;;8.10;75.40;;;;;;5019794;28;20459;-71
2022/04/11 08:50:24;;;;;;;17.55;8.35;;;8.20;75.30;;;;;;5027339;28;20470;-71
2022/04/11 08:52:53;;;;;;;11.60;7.03;;;8.30;75.20;;;;;;5018586;28;20978;-70
2022/04/11 08:55:21;;;;;;;10.30;6.70;;;8.40;74.60;;;;;;5017747;28;20465;-69
2022/04/11 08:57:50;;;;;;;9.73;5.90;;;8.50;74.60;;;;;;5027529;28;20456;-70
2022/04/11 09:00:20;;;;;;;12.37;6.40;;;8.50;74.30;;;;;;5028288;28;20470;-70
2022/04/11 09:02:48;;;;;;;11.67;6.40;;;8.60;73.90;;;;;;5018885;28;21021;-70
2022/04/11 09:05:23;;;;;;;11.30;7.60;;;8.70;73.40;;;;;;5017874;28;20456;-70
2022/04/11 09:07:53;;;;;;;14.70;7.70;;;8.70;73.50;;;;;;5020518;28;20525;-70
2022/04/11 09:10:23;;;;;;;10.37;7.30;;;8.80;73.40;;;;;;5017456;28;20483;-69
2022/04/11 09:12:51;;;;;;;16.10;7.33;;;8.90;73.10;;;;;;5015550;28;20483;-71
2022/04/11 09:15:21;;;;;;;11.33;6.37;;;8.90;72.80;;;;;;5015044;28;20536;-71
2022/04/11 09:17:49;;;;;;;11.20;6.83;;;9.00;72.20;;;;;;5021020;28;20477;-70
2022/04/11 09:20:18;;;;;;;10.27;7.10;;;9.10;72.20;;;;;;5021868;28;20550;-70
2022/04/11 09:22:48;;;;;;;8.40;5.57;;;9.10;72.00;;;;;;5017955;28;20478;-70
2022/04/11 09:25:18;;;;;;;8.50;5.03;;;9.20;71.70;;;;;;5016418;28;20456;-71
2022/04/11 09:27:47;;;;;;;8.53;5.53;;;9.20;71.60;;;;;;5013880;28;20828;-70
2022/04/11 09:30:27;;;;;;;14.73;7.23;;;9.30;71.40;;;;;;5014433;28;20495;-71
2022/04/11 09:33:02;;;;;;;10.93;7.17;;;9.30;71.30;;;;;;5017358;28;20484;-69
2022/04/11 09:35:32;;;;;;;13.43;7.90;;;9.40;71.00;;;;;;5015576;28;20459;-70
2022/04/11 09:38:10;;;;;;;11.63;7.40;;;9.40;70.90;;;;;;5019114;28;20453;-70
2022/04/11 09:40:40;;;;;;;11.00;6.77;;;9.40;70.50;;;;;;5015180;28;20780;-70
2022/04/11 09:43:09;;;;;;;16.27;7.50;;;9.50;70.70;;;;;;5015330;28;21026;-70
2022/04/11 09:45:45;;;;;;;11.37;7.40;;;9.50;69.90;;;;;;5026836;28;20473;-70
2022/04/11 09:48:18;;;;;;;9.37;5.87;;;9.50;70.00;;;;;;5019813;28;20531;-69
2022/04/11 09:50:47;;;;;;;11.07;6.33;;;9.60;69.90;;;;;;5012323;28;20471;-70
2022/04/11 09:53:18;;;;;;;8.17;5.20;;;9.60;69.60;;;;;;5026497;28;20464;-70
2022/04/11 09:55:48;;;;;;;8.50;6.00;;;9.70;69.20;;;;;;5016228;28;20472;-70
2022/04/11 09:58:17;;;;;;;9.37;5.60;;;9.70;69.00;;;;;;5030829;28;20495;-71
2022/04/11 10:00:46;;;;;;;12.87;6.70;;;9.80;69.10;;;;;;5020014;28;20491;-70
2022/04/11 10:03:14;;;;;;;10.20;7.40;;;9.80;69.00;;;;;;5016603;28;20469;-70
2022/04/11 10:05:43;;;;;;;9.90;6.27;;;9.80;67.40;;;;;;5015187;28;20471;-70
2022/04/11 10:08:12;;;;;;;8.93;6.47;;;9.90;68.50;;;;;;5016389;28;20950;-70
2022/04/11 10:10:43;;;;;;;11.50;7.83;;;9.90;68.50;;;;;;5015394;28;20809;-70
2022/04/11 10:13:12;;;;;;;11.30;6.87;;;10.00;68.40;;;;;;5021565;28;20482;-70
2022/04/11 10:15:48;;;;;;;13.93;7.30;;;10.10;68.30;;;;;;5017451;28;20464;-70
2022/04/11 10:18:21;;;;;;;8.90;6.77;;;10.10;68.10;;;;;;5018141;28;20508;-70
2022/04/11 10:20:52;;;;;;;11.43;7.33;;;10.10;67.50;;;;;;5017833;28;21287;-71
2022/04/11 10:23:49;;;;;;;9.70;7.50;;;10.20;67.50;;;;;;5016312;28;20931;-69
2022/04/11 10:26:20;;;;;;;13.50;8.60;;;10.20;67.00;;;;;;5018317;28;20451;-70
2022/04/11 10:28:51;;;;;;;10.50;7.93;;;10.30;66.60;;;;;;5017495;28;20870;-70
2022/04/11 10:31:19;;;;;;;11.33;7.40;;;10.40;66.60;;;;;;5018451;28;20488;-70
2022/04/11 10:33:48;;;;;;;10.03;7.43;;;10.40;65.70;;;;;;5013854;28;20481;-70
2022/04/11 10:36:30;;;;;;;9.37;6.63;;;10.40;66.20;;;;;;5022246;28;20452;-70
2022/04/11 10:39:28;;;;;;;9.23;6.47;;;10.60;66.00;;;;;;5018480;28;20468;-71
2022/04/11 10:42:18;;;;;;;12.77;7.90;;;10.60;65.80;;;;;;5018126;28;20793;-71
2022/04/11 10:44:48;;;;;;;8.57;6.60;;;10.60;65.20;;;;;;5015858;28;20464;-69
2022/04/11 10:47:26;;;;;;;10.27;7.43;;;10.60;64.80;;;;;;5018896;28;20487;-70
2022/04/11 10:50:20;;;;;;;11.80;8.00;;;10.70;65.30;;;;;;5024583;28;20463;-70
2022/04/11 10:52:53;;;;;;;12.63;7.90;;;10.80;65.10;;;;;;5017723;28;20462;-68
2022/04/11 10:55:23;;;;;;;11.33;7.30;;;10.80;65.40;;;;;;5024153;28;20490;-70
2022/04/11 10:57:54;;;;;;;17.13;8.80;;;10.80;65.30;;;;;;5018146;28;20483;-74
2022/04/11 11:00:24;;;;;;;10.77;6.20;;;10.90;65.10;;;;;;5018985;28;20475;-75
2022/04/11 11:03:13;;;;;;;11.67;6.40;;;10.90;65.00;;;;;;5017574;28;20874;-75
2022/04/11 11:05:43;;;;;;;9.43;6.37;;;11.00;64.00;;;;;;5019904;28;20468;-73
2022/04/11 11:08:28;;;;;;;13.87;7.20;;;11.10;63.70;;;;;;5016776;28;21148;-75
2022/04/11 11:10:58;;;;;;;12.20;5.67;;;11.20;64.10;;;;;;5014427;28;21381;-75
2022/04/11 11:13:30;;;;;;;8.83;5.20;;;11.20;64.10;;;;;;5016381;28;20457;-75
2022/04/11 11:16:00;;;;;;;8.27;5.90;;;11.20;64.00;;;;;;5015764;28;20587;-74
2022/04/11 11:19:07;;;;;;;8.97;6.00;;;11.30;63.70;;;;;;5016351;28;20502;-74
2022/04/11 11:22:00;;;;;;;12.87;7.00;;;11.30;63.70;;;;;;5016423;28;20470;-74
2022/04/11 11:24:28;;;;;;;11.30;6.80;;;11.40;63.50;;;;;;5017667;28;20444;-75
2022/04/11 11:26:59;;;;;;;10.67;6.40;;;11.40;63.10;;;;;;5017824;28;20453;-74
2022/04/11 11:29:31;;;;;;;11.20;5.90;;;11.40;62.90;;;;;;5018109;28;20449;-74
2022/04/11 11:32:01;;;;;;;11.03;6.87;;;11.50;62.90;;;;;;5017703;28;20572;-74
2022/04/11 11:34:32;;;;;;;8.63;5.53;;;11.50;63.00;;;;;;5015375;28;20471;-74
2022/04/11 11:37:02;;;;;;;8.50;5.10;;;11.50;62.50;;;;;;5019902;28;20452;-75
2022/04/11 11:39:35;;;;;;;7.60;5.23;;;11.60;62.90;;;;;;5033326;28;20460;-74
2022/04/11 11:42:05;;;;;;;10.17;6.00;;;11.60;61.60;;;;;;5021094;28;20477;-75
2022/04/11 11:44:45;;;;;;;10.43;5.87;;;11.60;61.40;;;;;;5020911;28;21075;-74
2022/04/11 11:47:13;;;;;;;11.93;4.77;;;11.70;61.90;;;;;;5022817;28;21341;-75
2022/04/11 11:49:42;;;;;;;10.80;5.33;;;11.80;61.80;;;;;;5019750;28;20880;-74
2022/04/11 11:52:15;;;;;;;10.10;5.40;;;11.80;61.60;;;;;;5020289;28;20459;-74
2022/04/11 11:54:44;;;;;;;7.53;4.90;;;11.80;61.30;;;;;;5020372;28;20483;-74
2022/04/11 11:57:18;;;;;;;10.93;6.80;;;11.80;61.00;;;;;;5019784;28;20455;-74
2022/04/11 11:59:55;;;;;;;8.33;5.80;;;11.80;60.30;;;;;;5018477;28;20445;-74
2022/04/11 12:05:20;;;;;;;9.10;5.17;;;11.90;60.20;;;;;;5020984;28;20540;-74
2022/04/11 12:07:49;;;;;;;6.80;4.50;;;12.00;60.70;;;;;;5014074;28;20468;-74
2022/04/11 12:10:18;;;;;;;9.90;6.47;;;12.00;60.70;;;;;;5015366;28;20844;-74
2022/04/11 12:12:46;;;;;;;7.93;5.50;;;12.10;60.40;;;;;;5018029;28;20472;-74
2022/04/11 12:15:17;;;;;;;7.90;5.67;;;12.10;60.20;;;;;;5013759;28;20482;-74
2022/04/11 12:17:47;;;;;;;9.57;5.97;;;12.10;60.30;;;;;;5018560;28;20507;-75
2022/04/11 12:20:16;;;;;;;10.20;6.23;;;12.20;60.00;;;;;;5015874;28;20887;-74
2022/04/11 12:23:01;;;;;;;7.90;5.17;;;12.20;59.40;;;;;;5020402;28;20449;-74
2022/04/11 12:25:31;;;;;;;8.63;6.00;;;12.20;59.80;;;;;;5015832;28;20953;-74
2022/04/11 12:28:18;;;;;;;15.60;6.43;;;12.20;59.90;;;;;;5020659;28;20470;-74
2022/04/11 12:30:49;;;;;;;9.40;5.73;;;12.30;59.70;;;;;;5017738;28;20472;-74
2022/04/11 12:33:34;;;;;;;8.70;5.57;;;12.30;59.60;;;;;;5019444;28;20489;-74
2022/04/11 12:36:09;;;;;;;7.90;5.60;;;12.40;59.20;;;;;;5018222;28;20468;-74
2022/04/11 12:38:41;;;;;;;10.20;5.50;;;12.40;58.80;;;;;;5013555;28;20472;-75
2022/04/11 12:41:31;;;;;;;12.20;6.70;;;12.50;59.30;;;;;;5022414;28;20493;-75
2022/04/11 12:44:04;;;;;;;10.67;5.87;;;12.50;59.20;;;;;;5018602;28;20447;-75
2022/04/11 12:46:36;;;;;;;14.13;5.80;;;12.50;59.20;;;;;;5014603;28;20479;-75
2022/04/11 12:49:05;;;;;;;14.47;6.30;;;12.50;59.10;;;;;;5016760;28;21008;-74
2022/04/11 12:51:34;;;;;;;17.93;5.43;;;12.50;58.90;;;;;;5014610;28;20480;-74
2022/04/11 12:54:07;;;;;;;8.40;4.80;;;12.50;58.60;;;;;;5034751;28;20472;-74
2022/04/11 12:56:36;;;;;;;8.23;5.60;;;12.50;58.50;;;;;;5023064;28;20459;-74
2022/04/11 12:59:05;;;;;;;9.00;6.03;;;12.60;58.40;;;;;;5019530;28;20463;-74
2022/04/11 13:01:58;;;;;;;6.83;4.43;;;12.70;58.40;;;;;;5016905;28;21037;-76
2022/04/11 13:04:26;;;;;;;9.80;5.50;;;12.70;58.50;;;;;;5018975;28;20523;-75